CW7500 Weather Reports


Display with metric or nautical units.
time (UTC)temp
F
wind
direction
speed
MPH
gust
MPH
rain 1hr
in
rain 24hr
in
rain mn
in
humidity
%
barometer
mb
20200408191017 53 50 2.0 10.0 0.00 0.00 0.00 54 996.6
20200408190516 53 63 3.0 8.0 0.00 0.00 0.00 52 996.5
20200408190016 54 50 3.0 9.0 0.00 0.00 0.00 48 996.3
20200408185516 55 39 3.0 6.0 0.00 0.00 0.00 47 996.2
20200408185016 52 51 3.0 7.0 0.00 0.00 0.00 50 996.5
20200408184516 52 30 5.0 8.0 0.00 0.00 0.00 52 996.6
20200408184016 53 33 1.0 8.0 0.00 0.00 0.00 52 996.4
20200408183516 53 51 3.0 9.0 0.00 0.00 0.00 50 996.4
20200408183015 53 79 3.0 8.0 0.00 0.00 0.00 50 996.2
20200408182516 52 94 7.0 10.0 0.00 0.00 0.00 49 996.4
20200408182015 53 92 2.0 5.0 0.00 0.00 0.00 58 996.5
20200408181516 52 14 5.0 9.0 0.00 0.00 0.00 59 996.5
20200408181016 51 30 3.0 10.0 0.00 0.00 0.00 56 996.5
20200408180516 52 31 4.0 9.0 0.00 0.00 0.00 56 996.5
20200408180016 52 23 4.0 8.0 0.00 0.00 0.00 58 996.5
20200408175516 52 36 3.0 8.0 0.00 0.00 0.00 61 996.5
20200408175016 51 303 2.0 5.0 0.00 0.00 0.00 61 996.8
20200408174515 50 81 4.0 7.0 0.00 0.00 0.00 65 996.9
20200408174016 50 80 3.0 8.0 0.00 0.00 0.00 66 996.8
20200408173516 50 89 4.0 7.0 0.00 0.00 0.00 63 997.0
20200408173016 50 70 3.0 8.0 0.00 0.00 0.00 71 996.7
20200408172516 49 64 2.0 6.0 0.00 0.00 0.00 68 996.7
20200408172015 50 80 1.0 7.0 0.00 0.00 0.00 68 996.9
20200408171515 50 58 3.0 6.0 0.00 0.00 0.00 69 996.7
20200408171016 50 0 3.0 7.0 0.00 0.00 0.00 71 996.7
20200408170516 49 223 0.0 5.0 0.00 0.00 0.00 72 996.7
20200408170015 49 36 2.0 6.0 0.00 0.00 0.00 73 996.5
20200408165515 49 86 1.0 6.0 0.00 0.00 0.00 76 996.5
20200408165015 49 8 2.0 7.0 0.00 0.00 0.00 72 996.3
20200408164516 48 55 6.0 12.0 0.00 0.00 0.00 71 996.4
20200408164016 49 69 4.0 8.0 0.00 0.00 0.00 76 996.2
20200408163516 48 26 2.0 7.0 0.00 0.00 0.00 79 996.2
20200408163016 48 353 5.0 9.0 0.00 0.00 0.00 77 996.3
20200408162516 48 23 3.0 7.0 0.00 0.00 0.00 78 996.2
20200408162016 48 97 3.0 7.0 0.00 0.00 0.00 80 996.4
20200408161515 47 357 2.0 5.0 0.00 0.00 0.00 81 996.3
20200408161015 47 60 2.0 5.0 0.00 0.00 0.00 84 996.4
20200408160515 47 7 0.0 3.0 0.00 0.00 0.00 86 996.4
20200408160016 47 36 1.0 3.0 0.00 0.00 0.00 85 996.4
20200408155515 47 65 1.0 3.0 0.00 0.00 0.00 87 996.1
20200408155016 46 27 1.0 3.0 0.00 0.00 0.00 88 996.6
20200408154516 46 16 1.0 5.0 0.00 0.00 0.00 88 996.6
20200408154016 45 46 2.0 5.0 0.00 0.00 0.00 88 996.1
20200408153515 45 29 3.0 7.0 0.00 0.00 0.00 88 996.6
20200408153016 45 18 2.0 7.0 0.00 0.00 0.00 90 996.6
20200408152516 45 43 3.0 7.0 0.00 0.00 0.00 91 996.5
20200408152015 45 34 3.0 6.0 0.00 0.00 0.00 92 996.7
20200408151516 44 54 3.0 6.0 0.00 0.00 0.00 91 996.7
20200408151015 45 75 2.0 5.0 0.00 0.00 0.00 92 996.8
20200408150515 45 14 2.0 5.0 0.00 0.00 0.00 92 997.0
20200408150015 45 223 1.0 6.0 0.00 0.00 0.00 93 996.9
20200408145515 45 1 1.0 5.0 0.00 0.00 0.00 94 996.7
20200408145015 45 47 3.0 6.0 0.00 0.00 0.00 93 996.7
20200408144515 45 357 2.0 5.0 0.00 0.00 0.00 95 997.0
20200408144016 44 311 2.0 5.0 0.00 0.00 0.00 95 996.9
20200408143516 44 275 2.0 6.0 0.00 0.00 0.00 95 997.0
20200408143015 44 35 2.0 3.0 0.00 0.00 0.00 96 997.0
20200408142515 44 340 1.0 5.0 0.00 0.00 0.00 96 997.1
20200408142015 43 272 1.0 6.0 0.00 0.00 0.00 97 997.1
20200408141515 43 4 1.0 5.0 0.00 0.00 0.00 97 997.1
20200408141015 43 38 0.0 5.0 0.00 0.00 0.00 97 997.0
20200408140516 43 339 1.0 5.0 0.00 0.00 0.00 96 997.1
20200408140015 43 47 2.0 3.0 0.00 0.00 0.00 96 997.0
20200408135515 43 17 1.0 5.0 0.00 0.00 0.00 97 997.1
20200408135015 43 59 2.0 5.0 0.00 0.00 0.00 96 996.9
20200408134515 43 48 2.0 6.0 0.00 0.00 0.00 96 996.8
20200408134015 43 37 2.0 6.0 0.00 0.00 0.00 96 996.8
20200408133515 43 310 2.0 5.0 0.00 0.00 0.00 95 997.0
20200408133015 43 342 2.0 6.0 0.00 0.00 0.00 95 996.8
20200408132515 43 9 1.0 5.0 0.00 0.00 0.00 94 996.5
20200408132015 43 4 3.0 8.0 0.00 0.00 0.00 93 996.6
20200408131515 43 13 2.0 7.0 0.00 0.00 0.00 94 996.5
20200408131015 43 353 2.0 7.0 0.00 0.00 0.00 94 996.4
20200408130515 43 75 2.0 8.0 0.00 0.00 0.00 93 996.3
20200408130014 43 60 3.0 9.0 0.00 0.00 0.00 92 996.4
20200408125516 43 58 3.0 7.0 0.00 0.00 0.00 91 996.1
20200408125014 43 40 4.0 9.0 0.00 0.00 0.00 91 996.1
20200408124515 43 27 2.0 6.0 0.00 0.00 0.00 91 996.4
20200408124015 43 41 2.0 6.0 0.00 0.00 0.00 92 996.2
20200408123515 43 50 3.0 7.0 0.00 0.00 0.00 91 996.2
20200408123014 43 68 2.0 6.0 0.00 0.00 0.00 92 996.5
20200408122515 43 132 2.0 6.0 0.00 0.00 0.00 91 996.2
20200408122014 43 29 3.0 6.0 0.00 0.00 0.00 91 996.3
20200408121515 43 26 2.0 6.0 0.00 0.00 0.00 90 996.3
20200408121015 43 5 3.0 7.0 0.00 0.00 0.00 90 996.3
20200408120515 43 75 3.0 7.0 0.00 0.00 0.00 88 996.3
20200408120015 43 57 3.0 7.0 0.00 0.00 0.00 89 996.2
20200408115515 43 83 3.0 8.0 0.00 0.00 0.00 89 996.3
20200408115015 43 8 4.0 6.0 0.00 0.00 0.00 87 996.5
20200408114515 43 6 2.0 5.0 0.00 0.00 0.00 87 996.2
20200408114015 43 59 3.0 6.0 0.00 0.00 0.00 87 996.3
20200408113515 43 39 3.0 7.0 0.00 0.00 0.00 86 996.2
20200408113014 43 29 3.0 6.0 0.00 0.00 0.00 88 996.1
20200408112514 43 75 3.0 6.0 0.00 0.00 0.00 87 995.9
20200408112015 43 51 3.0 6.0 0.00 0.00 0.00 86 996.0
20200408111515 43 75 2.0 5.0 0.00 0.00 0.00 88 996.0
20200408111015 43 45 2.0 5.0 0.00 0.00 0.00 89 995.7
20200408110515 43 55 2.0 5.0 0.00 0.00 0.00 90 995.7
20200408105515 43 58 2.0 5.0 0.00 0.00 0.00 87 995.7
20200408105015 43 60 2.0 5.0 0.00 0.00 0.00 89 995.7
20200408104514 43 35 2.0 5.0 0.00 0.00 0.00 83 995.8
20200408104015 43 55 2.0 3.0 0.00 0.00 0.00 84 996.0
20200408103515 43 50 1.0 2.0 0.00 0.00 0.00 82 996.0
20200408103015 43 41 1.0 2.0 0.00 0.00 0.00 82 996.1
20200408102514 44 39 1.0 2.0 0.00 0.00 0.00 80 996.1
20200408102014 44 65 0.0 1.0 0.00 0.00 0.00 72 995.9
20200408101514 44 14 0.0 2.0 0.00 0.00 0.00 75 996.3
20200408101015 45 23 0.0 1.0 0.00 0.00 0.00 72 996.3
20200408100515 45 36 1.0 2.0 0.00 0.00 0.00 70 996.3
20200408100015 45 340 1.0 2.0 0.00 0.00 0.00 67 996.6
20200408095515 45 43 0.0 1.0 0.00 0.00 0.00 64 996.6
20200408095015 46 38 1.0 5.0 0.00 0.00 0.00 64 996.8
20200408094515 46 33 2.0 3.0 0.00 0.00 0.00 65 996.8
20200408094015 46 34 0.0 2.0 0.00 0.00 0.00 65 996.6
20200408093514 47 68 1.0 1.0 0.00 0.00 0.00 63 996.5
20200408093014 47 76 0.0 1.0 0.00 0.00 0.00 57 996.6
20200408092515 47 45 1.0 2.0 0.00 0.00 0.00 55 996.7
20200408091015 48 14 0.0 1.0 0.00 0.00 0.00 52 996.7
20200408090515 48 6 0.0 2.0 0.00 0.00 0.00 52 996.5
20200408090015 48 345 0.0 2.0 0.00 0.00 0.00 52 996.5
20200408085514 48 277 1.0 2.0 0.00 0.00 0.00 50 996.5
20200408085014 48 18 1.0 2.0 0.00 0.00 0.00 52 996.8
20200408084515 48 347 0.0 2.0 0.00 0.00 0.00 53 996.8
20200408084015 48 22 1.0 2.0 0.00 0.00 0.00 52 996.7
20200408083515 48 268 2.0 3.0 0.00 0.00 0.00 55 997.0
20200408083014 47 301 0.0 2.0 0.00 0.00 0.00 57 996.8
20200408082514 47 317 1.0 2.0 0.00 0.00 0.00 60 997.0
20200408082014 47 283 1.0 1.0 0.00 0.00 0.00 61 997.0
20200408081514 47 245 1.0 1.0 0.00 0.00 0.00 58 996.9
20200408081014 48 243 0.0 1.0 0.00 0.00 0.00 58 997.1
20200408080514 48 341 0.0 2.0 0.00 0.00 0.00 52 997.1
20200408080014 49 298 1.0 2.0 0.00 0.00 0.00 52 997.3
20200408075514 49 264 0.0 2.0 0.00 0.00 0.00 51 997.1
20200408075014 48 288 1.0 2.0 0.00 0.00 0.00 50 997.4
20200408074514 48 296 1.0 2.0 0.00 0.00 0.00 53 997.3
20200408074014 48 264 1.0 2.0 0.00 0.00 0.00 56 997.2
20200408073514 47 243 1.0 2.0 0.00 0.00 0.00 60 997.3
20200408073014 47 288 1.0 2.0 0.00 0.00 0.00 58 997.2
20200408072514 47 261 1.0 3.0 0.00 0.00 0.00 57 997.0
20200408072014 47 247 2.0 2.0 0.00 0.00 0.00 58 997.1
20200408071514 47 240 0.0 1.0 0.00 0.00 0.00 62 997.0
20200408071014 47 14 0.0 2.0 0.00 0.00 0.00 59 997.0
20200408070514 48 143 0.0 1.0 0.00 0.00 0.00 56 997.0
20200408070014 48 210 1.0 1.0 0.00 0.00 0.00 59 997.2
20200408065515 48 241 1.0 1.0 0.00 0.00 0.00 57 997.4
20200408065015 48 271 0.0 2.0 0.00 0.00 0.00 55 997.6
20200408064514 49 232 1.0 5.0 0.00 0.00 0.00 55 997.7
20200408064014 49 227 1.0 1.0 0.00 0.00 0.00 54 997.6
20200408063514 50 276 1.0 2.0 0.00 0.00 0.00 49 997.8
20200408063014 50 277 1.0 2.0 0.00 0.00 0.00 50 997.8
20200408062514 49 285 1.0 2.0 0.00 0.00 0.00 50 998.1
20200408062014 49 323 1.0 2.0 0.00 0.00 0.00 50 998.1
20200408061515 49 268 1.0 2.0 0.00 0.00 0.00 52 998.5
20200408061014 48 289 0.0 1.0 0.00 0.00 0.00 53 998.6
20200408060514 48 281 0.0 2.0 0.00 0.00 0.00 54 998.8
20200408060014 48 24 0.0 1.0 0.00 0.00 0.00 55 998.8
20200408055514 48 225 1.0 1.0 0.00 0.00 0.00 54 998.9
20200408055014 48 218 0.0 1.0 0.00 0.00 0.00 53 999.0
20200408054514 49 244 0.0 1.0 0.00 0.00 0.00 54 999.2
20200408054014 49 252 1.0 2.0 0.00 0.00 0.00 53 999.2
20200408053514 49 279 0.0 2.0 0.00 0.00 0.00 52 999.3
20200408053014 49 10 1.0 2.0 0.00 0.00 0.00 53 999.2
20200408052514 49 5 1.0 2.0 0.00 0.00 0.00 55 999.4
20200408052013 49 17 1.0 2.0 0.00 0.00 0.00 52 999.6
20200408051514 49 27 1.0 1.0 0.00 0.00 0.00 53 999.6
20200408051014 49 30 0.0 0.0 0.00 0.00 0.00 52 999.8
20200408050514 49 33 0.0 1.0 0.00 0.00 0.00 52 999.9
20200408050014 49 23 1.0 1.0 0.00 0.00 0.00 52 1000.1
20200408045514 49 216 0.0 0.0 0.00 0.00 0.00 51 1000.2
20200408045014 50 250 1.0 2.0 0.00 0.00 0.00 51 1000.1
20200408044513 50 252 2.0 3.0 0.00 0.00 0.00 50 1000.2
20200408044014 50 243 2.0 3.0 0.00 0.00 0.00 50 1000.4
20200408043514 50 245 2.0 3.0 0.00 0.00 0.00 50 1000.3
20200408043013 50 242 2.0 3.0 0.00 0.00 0.00 50 1000.4
20200408042513 50 242 2.0 3.0 0.00 0.00 0.00 49 1000.8
20200408042013 50 242 2.0 2.0 0.00 0.00 0.00 50 1000.9
20200408041514 50 222 1.0 2.0 0.00 0.00 0.00 53 1001.0
20200408041014 50 234 2.0 3.0 0.00 0.00 0.00 50 1001.2
20200408040514 50 243 2.0 3.0 0.00 0.00 0.00 49 1001.2
20200408040013 50 253 2.0 3.0 0.00 0.00 0.00 49 1001.2
20200408035513 50 247 2.0 3.0 0.00 0.00 0.00 49 1001.1
20200408035014 50 237 2.0 3.0 0.00 0.00 0.00 49 1001.2
20200408034514 50 266 2.0 3.0 0.00 0.00 0.00 50 1001.5
20200408034014 49 246 2.0 3.0 0.00 0.00 0.00 50 1001.5
20200408033513 49 240 2.0 3.0 0.00 0.00 0.00 50 1001.5
20200408033013 49 239 2.0 3.0 0.00 0.00 0.00 51 1001.6
20200408032513 49 242 2.0 3.0 0.00 0.00 0.00 51 1001.8
20200408032013 49 251 2.0 2.0 0.00 0.00 0.00 51 1002.0
20200408031513 49 246 1.0 2.0 0.00 0.00 0.00 51 1002.0
20200408031013 49 245 2.0 2.0 0.00 0.00 0.00 50 1002.0
20200408030514 50 242 2.0 3.0 0.00 0.00 0.00 49 1002.0
20200408030014 50 248 1.0 3.0 0.00 0.00 0.00 48 1002.0
20200408025513 49 238 1.0 2.0 0.00 0.00 0.00 49 1002.2
20200408025013 50 219 2.0 2.0 0.00 0.00 0.00 49 1002.3
20200408024513 50 261 1.0 2.0 0.00 0.00 0.00 47 1002.4
20200408024013 50 238 1.0 2.0 0.00 0.00 0.00 47 1002.3
20200408023514 50 233 2.0 2.0 0.00 0.00 0.00 46 1002.7
20200408023014 51 238 2.0 3.0 0.00 0.00 0.00 44 1002.6
20200408022514 51 235 2.0 2.0 0.00 0.00 0.00 44 1002.7
20200408022014 51 247 2.0 2.0 0.00 0.00 0.00 43 1002.8
20200408021514 50 257 0.0 2.0 0.00 0.00 0.00 45 1002.8
20200408021014 50 155 2.0 2.0 0.00 0.00 0.00 45 1003.1
20200408020513 50 235 2.0 3.0 0.00 0.00 0.00 43 1002.9
20200408020014 50 238 2.0 2.0 0.00 0.00 0.00 42 1003.1
20200408015514 50 243 1.0 2.0 0.00 0.00 0.00 41 1003.1
20200408015013 51 256 1.0 3.0 0.00 0.00 0.00 40 1003.2
20200408014513 51 234 1.0 5.0 0.00 0.00 0.00 39 1003.4
20200408014013 51 259 1.0 2.0 0.00 0.00 0.00 35 1003.2
20200408013513 51 206 1.0 3.0 0.00 0.00 0.00 35 1003.2
20200408013013 51 196 2.0 3.0 0.00 0.00 0.00 32 1003.2
20200408012514 52 139 2.0 5.0 0.00 0.00 0.00 30 1003.2
20200408012013 53 138 1.0 2.0 0.00 0.00 0.00 27 1003.2
20200408011513 53 183 0.0 0.0 0.00 0.00 0.00 26 1003.1
20200408011013 53 210 0.0 0.0 0.00 0.00 0.00 25 1003.0
20200408010514 53 212 0.0 0.0 0.00 0.00 0.00 25 1003.1
20200408010013 53 212 0.0 1.0 0.00 0.00 0.00 25 1003.3
20200408005514 53 219 1.0 1.0 0.00 0.00 0.00 24 1003.2
20200408005013 54 251 1.0 1.0 0.00 0.00 0.00 24 1003.1
20200408004513 55 258 1.0 2.0 0.00 0.00 0.00 25 1003.3
20200408004013 55 280 1.0 2.0 0.00 0.00 0.00 23 1003.1
20200408003513 55 271 1.0 2.0 0.00 0.00 0.00 23 1003.1
20200408003013 55 262 1.0 2.0 0.00 0.00 0.00 23 1003.2
20200408002513 55 269 1.0 2.0 0.00 0.00 0.00 23 1003.1
20200408002013 55 277 1.0 2.0 0.00 0.00 0.00 23 1003.1
20200408001513 56 272 1.0 2.0 0.00 0.00 0.00 22 1003.1
20200408000517 55 286 1.0 2.0 0.00 0.00 0.00 22 1003.3
20200408000013 56 264 1.0 1.0 0.00 0.00 0.00 22 1003.1
20200407235513 56 269 1.0 1.0 0.00 0.00 0.00 23 1003.2
20200407235013 56 269 1.0 2.0 0.00 0.00 0.00 23 1003.1
20200407234513 56 270 1.0 2.0 0.00 0.00 0.00 21 1003.1
20200407234013 57 264 1.0 2.0 0.00 0.00 0.00 22 1003.2
20200407233513 57 285 0.0 1.0 0.00 0.00 0.00 21 1003.1
20200407233013 57 283 1.0 2.0 0.00 0.00 0.00 21 1002.9
20200407232513 57 262 1.0 2.0 0.00 0.00 0.00 22 1003.0
20200407232013 58 282 1.0 2.0 0.00 0.00 0.00 21 1002.9
20200407231514 58 301 1.0 2.0 0.00 0.00 0.00 21 1003.1
20200407231013 58 280 1.0 2.0 0.00 0.00 0.00 22 1003.3
20200407230513 58 292 1.0 2.0 0.00 0.00 0.00 20 1003.2
20200407230013 59 308 1.0 2.0 0.00 0.00 0.00 19 1003.2
20200407225513 59 276 1.0 2.0 0.00 0.00 0.00 20 1003.2
20200407225012 59 259 1.0 3.0 0.00 0.00 0.00 22 1003.2
20200407224513 59 266 1.0 3.0 0.00 0.00 0.00 19 1003.1
20200407224013 59 244 1.0 2.0 0.00 0.00 0.00 21 1003.2
20200407223513 60 246 2.0 3.0 0.00 0.00 0.00 20 1003.1
20200407223013 60 231 1.0 5.0 0.00 0.00 0.00 18 1003.2
20200407222513 60 281 2.0 5.0 0.00 0.00 0.00 18 1003.1
20200407222013 60 143 1.0 6.0 0.00 0.00 0.00 18 1003.1
20200407221513 61 257 2.0 6.0 0.00 0.00 0.00 18 1003.2
20200407221013 61 251 2.0 6.0 0.00 0.00 0.00 18 1003.3
20200407220513 61 225 3.0 6.0 0.00 0.00 0.00 18 1003.3
20200407220013 61 246 3.0 8.0 0.00 0.00 0.00 17 1003.4
20200407215512 61 240 3.0 8.0 0.00 0.00 0.00 17 1003.5
20200407215013 61 259 5.0 8.0 0.00 0.00 0.00 18 1003.4
20200407214513 61 253 3.0 7.0 0.00 0.00 0.00 17 1003.4
20200407214013 61 236 6.0 9.0 0.00 0.00 0.00 17 1003.6
20200407213513 62 268 3.0 7.0 0.00 0.00 0.00 18 1003.6
20200407213013 62 264 3.0 8.0 0.00 0.00 0.00 19 1003.9
20200407212513 62 261 6.0 9.0 0.00 0.00 0.00 17 1003.9
20200407212012 62 244 5.0 9.0 0.00 0.00 0.00 18 1003.8
20200407211513 62 258 4.0 9.0 0.00 0.00 0.00 18 1003.7
20200407211013 62 263 5.0 8.0 0.00 0.00 0.00 21 1003.6
20200407210513 62 243 2.0 7.0 0.00 0.00 0.00 20 1003.6
20200407210013 62 259 5.0 7.0 0.00 0.00 0.00 18 1003.7
20200407205513 62 284 4.0 7.0 0.00 0.00 0.00 18 1003.7
20200407205012 62 250 3.0 7.0 0.00 0.00 0.00 18 1004.2
20200407204512 62 243 4.0 8.0 0.00 0.00 0.00 19 1004.1
20200407204013 61 261 3.0 6.0 0.00 0.00 0.00 18 1004.0
20200407203513 61 232 2.0 5.0 0.00 0.00 0.00 21 1003.9
20200407203013 61 254 1.0 3.0 0.00 0.00 0.00 19 1003.9
20200407202512 61 264 3.0 5.0 0.00 0.00 0.00 18 1004.1
20200407202013 61 245 3.0 10.0 0.00 0.00 0.00 18 1004.1
20200407201513 63 230 4.0 10.0 0.00 0.00 0.00 16 1004.1
20200407201012 62 249 3.0 8.0 0.00 0.00 0.00 18 1004.4
20200407200513 63 247 5.0 8.0 0.00 0.00 0.00 17 1004.4
20200407200014 63 154 3.0 6.0 0.00 0.00 0.00 18 1004.5
20200407195513 62 208 3.0 7.0 0.00 0.00 0.00 18 1004.8
20200407195012 62 266 5.0 9.0 0.00 0.00 0.00 19 1004.7
20200407194512 62 272 5.0 9.0 0.00 0.00 0.00 17 1004.7
20200407194012 63 269 3.0 7.0 0.00 0.00 0.00 17 1004.4
20200407193513 63 243 6.0 9.0 0.00 0.00 0.00 17 1004.8
20200407193013 63 236 3.0 9.0 0.00 0.00 0.00 17 1004.6
20200407192513 63 220 5.0 10.0 0.00 0.00 0.00 17 1005.0
20200407192013 63 246 4.0 7.0 0.00 0.00 0.00 20 1005.3
20200407191513 62 245 3.0 7.0 0.00 0.00 0.00 20 1005.3